sensor_id;sensor_type;location;lat;lon;timestamp;temperature;humidity
6098;DHT22;3077;50.922;6.584;2023-03-14T00:01:08;12.80;99.90
6098;DHT22;3077;50.922;6.584;2023-03-14T00:03:34;12.70;99.90
6098;DHT22;3077;50.922;6.584;2023-03-14T00:06:04;12.70;99.90
6098;DHT22;3077;50.922;6.584;2023-03-14T00:08:29;12.50;99.90
6098;DHT22;3077;50.922;6.584;2023-03-14T00:10:55;12.70;99.90
6098;DHT22;3077;50.922;6.584;2023-03-14T00:13:23;12.70;99.90
6098;DHT22;3077;50.922;6.584;2023-03-14T00:15:48;12.70;99.90
6098;DHT22;3077;50.922;6.584;2023-03-14T00:18:14;12.90;99.90
6098;DHT22;3077;50.922;6.584;2023-03-14T00:20:39;12.70;99.90
6098;DHT22;3077;50.922;6.584;2023-03-14T00:23:05;12.70;99.90
6098;DHT22;3077;50.922;6.584;2023-03-14T00:25:31;12.70;99.90
6098;DHT22;3077;50.922;6.584;2023-03-14T00:27:56;12.70;99.90
6098;DHT22;3077;50.922;6.584;2023-03-14T00:30:22;12.70;99.90
6098;DHT22;3077;50.922;6.584;2023-03-14T00:32:47;12.80;99.90
6098;DHT22;3077;50.922;6.584;2023-03-14T00:35:13;12.80;99.90
6098;DHT22;3077;50.922;6.584;2023-03-14T00:37:38;12.80;99.90
6098;DHT22;3077;50.922;6.584;2023-03-14T00:40:05;12.80;99.90
6098;DHT22;3077;50.922;6.584;2023-03-14T00:42:32;12.70;99.90
6098;DHT22;3077;50.922;6.584;2023-03-14T00:44:57;12.60;99.90
6098;DHT22;3077;50.922;6.584;2023-03-14T00:47:23;12.30;99.90
6098;DHT22;3077;50.922;6.584;2023-03-14T00:49:48;11.70;99.90
6098;DHT22;3077;50.922;6.584;2023-03-14T00:52:14;11.00;99.90
6098;DHT22;3077;50.922;6.584;2023-03-14T00:54:39;10.60;99.90
6098;DHT22;3077;50.922;6.584;2023-03-14T00:57:05;10.10;99.90
6098;DHT22;3077;50.922;6.584;2023-03-14T00:59:31;9.90;99.90
6098;DHT22;3077;50.922;6.584;2023-03-14T01:01:56;9.90;99.90
6098;DHT22;3077;50.922;6.584;2023-03-14T01:04:22;9.60;99.90
6098;DHT22;3077;50.922;6.584;2023-03-14T01:06:47;9.50;99.90
6098;DHT22;3077;50.922;6.584;2023-03-14T01:09:13;9.50;99.90
6098;DHT22;3077;50.922;6.584;2023-03-14T01:11:39;9.50;99.90
6098;DHT22;3077;50.922;6.584;2023-03-14T01:14:05;9.40;99.90
6098;DHT22;3077;50.922;6.584;2023-03-14T01:16:33;9.40;99.90
6098;DHT22;3077;50.922;6.584;2023-03-14T01:18:59;9.50;99.90
6098;DHT22;3077;50.922;6.584;2023-03-14T01:21:30;9.40;99.90
6098;DHT22;3077;50.922;6.584;2023-03-14T01:23:57;9.50;99.90
6098;DHT22;3077;50.922;6.584;2023-03-14T01:26:26;9.60;99.90
6098;DHT22;3077;50.922;6.584;2023-03-14T01:28:53;9.60;99.90
6098;DHT22;3077;50.922;6.584;2023-03-14T01:31:19;9.70;99.90
6098;DHT22;3077;50.922;6.584;2023-03-14T01:33:45;9.80;99.90
6098;DHT22;3077;50.922;6.584;2023-03-14T01:36:11;9.80;99.90
6098;DHT22;3077;50.922;6.584;2023-03-14T01:38:38;9.90;99.90
6098;DHT22;3077;50.922;6.584;2023-03-14T01:41:06;10.00;99.90
6098;DHT22;3077;50.922;6.584;2023-03-14T01:43:32;10.00;99.90
6098;DHT22;3077;50.922;6.584;2023-03-14T01:48:30;9.80;99.90
6098;DHT22;3077;50.922;6.584;2023-03-14T01:50:57;10.00;99.90
6098;DHT22;3077;50.922;6.584;2023-03-14T01:53:24;10.00;99.90
6098;DHT22;3077;50.922;6.584;2023-03-14T01:55:52;10.00;99.90
6098;DHT22;3077;50.922;6.584;2023-03-14T01:58:22;10.00;99.90
6098;DHT22;3077;50.922;6.584;2023-03-14T02:00:49;10.10;99.90
6098;DHT22;3077;50.922;6.584;2023-03-14T02:03:17;10.00;99.90
6098;DHT22;3077;50.922;6.584;2023-03-14T02:05:44;10.00;99.90
6098;DHT22;3077;50.922;6.584;2023-03-14T02:08:18;10.00;99.90
6098;DHT22;3077;50.922;6.584;2023-03-14T02:10:47;10.00;99.90
6098;DHT22;3077;50.922;6.584;2023-03-14T02:13:14;10.00;99.90
6098;DHT22;3077;50.922;6.584;2023-03-14T02:15:41;9.90;99.90
6098;DHT22;3077;50.922;6.584;2023-03-14T02:18:08;10.00;99.90
6098;DHT22;3077;50.922;6.584;2023-03-14T02:21:30;9.80;99.90
6098;DHT22;3077;50.922;6.584;2023-03-14T02:24:09;9.90;99.90
6098;DHT22;3077;50.922;6.584;2023-03-14T02:26:41;9.90;99.90
6098;DHT22;3077;50.922;6.584;2023-03-14T02:29:08;10.10;99.90
6098;DHT22;3077;50.922;6.584;2023-03-14T02:31:34;9.90;99.90
6098;DHT22;3077;50.922;6.584;2023-03-14T02:34:01;10.10;99.90
6098;DHT22;3077;50.922;6.584;2023-03-14T02:36:28;9.90;99.90
6098;DHT22;3077;50.922;6.584;2023-03-14T02:39:10;10.00;99.90
6098;DHT22;3077;50.922;6.584;2023-03-14T02:41:37;10.00;99.90
6098;DHT22;3077;50.922;6.584;2023-03-14T02:44:03;9.90;99.90
6098;DHT22;3077;50.922;6.584;2023-03-14T02:46:29;10.00;99.90
6098;DHT22;3077;50.922;6.584;2023-03-14T02:49:07;10.00;99.90
6098;DHT22;3077;50.922;6.584;2023-03-14T02:51:33;10.10;99.90
6098;DHT22;3077;50.922;6.584;2023-03-14T02:53:59;10.20;99.90
6098;DHT22;3077;50.922;6.584;2023-03-14T02:56:25;10.20;99.90
6098;DHT22;3077;50.922;6.584;2023-03-14T02:58:50;10.50;99.90
6098;DHT22;3077;50.922;6.584;2023-03-14T03:01:16;10.30;99.90
6098;DHT22;3077;50.922;6.584;2023-03-14T03:03:41;10.30;99.90
6098;DHT22;3077;50.922;6.584;2023-03-14T03:06:07;10.30;99.90
6098;DHT22;3077;50.922;6.584;2023-03-14T03:08:33;10.30;99.90
6098;DHT22;3077;50.922;6.584;2023-03-14T03:10:59;10.40;99.90
6098;DHT22;3077;50.922;6.584;2023-03-14T03:13:24;10.40;99.90
6098;DHT22;3077;50.922;6.584;2023-03-14T03:15:50;10.50;99.90
6098;DHT22;3077;50.922;6.584;2023-03-14T03:18:16;10.70;99.90
6098;DHT22;3077;50.922;6.584;2023-03-14T03:20:41;10.50;99.90
6098;DHT22;3077;50.922;6.584;2023-03-14T03:23:07;10.50;99.90
6098;DHT22;3077;50.922;6.584;2023-03-14T03:25:33;10.60;99.90
6098;DHT22;3077;50.922;6.584;2023-03-14T03:27:58;10.60;99.90
6098;DHT22;3077;50.922;6.584;2023-03-14T03:30:24;10.60;99.90
6098;DHT22;3077;50.922;6.584;2023-03-14T03:32:50;10.50;99.90
6098;DHT22;3077;50.922;6.584;2023-03-14T03:35:15;10.50;99.90
6098;DHT22;3077;50.922;6.584;2023-03-14T03:37:41;10.40;99.90
6098;DHT22;3077;50.922;6.584;2023-03-14T03:40:08;10.50;99.90
6098;DHT22;3077;50.922;6.584;2023-03-14T03:42:34;10.50;99.90
6098;DHT22;3077;50.922;6.584;2023-03-14T03:45:02;10.60;99.90
6098;DHT22;3077;50.922;6.584;2023-03-14T03:47:30;10.70;99.90
6098;DHT22;3077;50.922;6.584;2023-03-14T03:49:56;10.60;99.90
6098;DHT22;3077;50.922;6.584;2023-03-14T03:52:21;10.60;99.90
6098;DHT22;3077;50.922;6.584;2023-03-14T03:54:47;10.60;99.90
6098;DHT22;3077;50.922;6.584;2023-03-14T03:57:13;10.50;99.90
6098;DHT22;3077;50.922;6.584;2023-03-14T03:59:38;10.60;99.90
6098;DHT22;3077;50.922;6.584;2023-03-14T04:02:05;10.40;99.90
6098;DHT22;3077;50.922;6.584;2023-03-14T04:04:31;10.30;99.90
6098;DHT22;3077;50.922;6.584;2023-03-14T04:06:57;10.40;99.90
6098;DHT22;3077;50.922;6.584;2023-03-14T04:09:22;10.40;99.90
6098;DHT22;3077;50.922;6.584;2023-03-14T04:11:48;10.30;99.90
6098;DHT22;3077;50.922;6.584;2023-03-14T04:14:13;10.40;99.90
6098;DHT22;3077;50.922;6.584;2023-03-14T04:16:39;10.30;99.90
6098;DHT22;3077;50.922;6.584;2023-03-14T04:19:05;10.20;99.90
6098;DHT22;3077;50.922;6.584;2023-03-14T04:21:30;10.30;99.90
6098;DHT22;3077;50.922;6.584;2023-03-14T04:23:56;10.30;99.90
6098;DHT22;3077;50.922;6.584;2023-03-14T04:26:21;10.40;99.90
6098;DHT22;3077;50.922;6.584;2023-03-14T04:28:47;10.40;99.90
6098;DHT22;3077;50.922;6.584;2023-03-14T04:31:19;10.50;99.90
6098;DHT22;3077;50.922;6.584;2023-03-14T04:33:45;10.30;99.90
6098;DHT22;3077;50.922;6.584;2023-03-14T04:36:11;10.30;99.90
6098;DHT22;3077;50.922;6.584;2023-03-14T04:38:37;10.30;99.90
6098;DHT22;3077;50.922;6.584;2023-03-14T04:41:03;10.50;99.90
6098;DHT22;3077;50.922;6.584;2023-03-14T04:43:29;10.40;99.90
6098;DHT22;3077;50.922;6.584;2023-03-14T04:45:56;10.30;99.90
6098;DHT22;3077;50.922;6.584;2023-03-14T04:48:22;10.30;99.90
6098;DHT22;3077;50.922;6.584;2023-03-14T04:50:48;10.20;99.90
6098;DHT22;3077;50.922;6.584;2023-03-14T04:53:14;10.10;99.90
6098;DHT22;3077;50.922;6.584;2023-03-14T04:55:40;10.20;99.90
6098;DHT22;3077;50.922;6.584;2023-03-14T04:58:06;10.30;99.90
6098;DHT22;3077;50.922;6.584;2023-03-14T05:00:32;10.30;99.90
6098;DHT22;3077;50.922;6.584;2023-03-14T05:02:57;10.30;99.90
6098;DHT22;3077;50.922;6.584;2023-03-14T05:05:23;10.30;99.90
6098;DHT22;3077;50.922;6.584;2023-03-14T05:07:48;10.50;99.90
6098;DHT22;3077;50.922;6.584;2023-03-14T05:10:15;10.40;99.90
6098;DHT22;3077;50.922;6.584;2023-03-14T05:12:41;10.40;99.90
6098;DHT22;3077;50.922;6.584;2023-03-14T05:15:07;10.40;99.90
6098;DHT22;3077;50.922;6.584;2023-03-14T05:17:33;10.40;99.90
6098;DHT22;3077;50.922;6.584;2023-03-14T05:19:59;10.50;99.90
6098;DHT22;3077;50.922;6.584;2023-03-14T05:22:25;10.50;99.90
6098;DHT22;3077;50.922;6.584;2023-03-14T05:24:50;10.40;99.90
6098;DHT22;3077;50.922;6.584;2023-03-14T05:27:16;10.40;99.90
6098;DHT22;3077;50.922;6.584;2023-03-14T05:29:42;10.30;99.90
6098;DHT22;3077;50.922;6.584;2023-03-14T05:32:07;10.30;99.90
6098;DHT22;3077;50.922;6.584;2023-03-14T05:34:33;10.30;99.90
6098;DHT22;3077;50.922;6.584;2023-03-14T05:36:59;10.30;99.90
6098;DHT22;3077;50.922;6.584;2023-03-14T05:39:24;10.30;99.90
6098;DHT22;3077;50.922;6.584;2023-03-14T05:41:50;10.40;99.90
6098;DHT22;3077;50.922;6.584;2023-03-14T05:44:16;10.40;99.90
6098;DHT22;3077;50.922;6.584;2023-03-14T05:46:42;10.30;99.90
6098;DHT22;3077;50.922;6.584;2023-03-14T05:49:07;10.30;99.90
6098;DHT22;3077;50.922;6.584;2023-03-14T05:51:33;10.40;99.90
6098;DHT22;3077;50.922;6.584;2023-03-14T05:53:58;10.10;99.90
6098;DHT22;3077;50.922;6.584;2023-03-14T05:56:24;10.10;99.90
6098;DHT22;3077;50.922;6.584;2023-03-14T05:58:50;9.90;99.90
6098;DHT22;3077;50.922;6.584;2023-03-14T06:01:15;10.00;99.90
6098;DHT22;3077;50.922;6.584;2023-03-14T06:03:41;9.90;99.90
6098;DHT22;3077;50.922;6.584;2023-03-14T06:06:07;9.90;99.90
6098;DHT22;3077;50.922;6.584;2023-03-14T06:08:32;10.00;99.90
6098;DHT22;3077;50.922;6.584;2023-03-14T06:10:58;10.00;99.90
6098;DHT22;3077;50.922;6.584;2023-03-14T06:13:23;10.00;99.90
6098;DHT22;3077;50.922;6.584;2023-03-14T06:15:49;10.00;99.90
6098;DHT22;3077;50.922;6.584;2023-03-14T06:18:15;10.00;99.90
6098;DHT22;3077;50.922;6.584;2023-03-14T06:20:40;10.10;99.90
6098;DHT22;3077;50.922;6.584;2023-03-14T06:23:07;10.20;99.90
6098;DHT22;3077;50.922;6.584;2023-03-14T06:25:34;10.40;99.90
6098;DHT22;3077;50.922;6.584;2023-03-14T06:28:00;10.30;99.90
6098;DHT22;3077;50.922;6.584;2023-03-14T06:30:25;10.30;99.90
6098;DHT22;3077;50.922;6.584;2023-03-14T06:32:51;10.40;99.90
6098;DHT22;3077;50.922;6.584;2023-03-14T06:35:17;10.50;99.90
6098;DHT22;3077;50.922;6.584;2023-03-14T06:37:43;10.50;99.90
6098;DHT22;3077;50.922;6.584;2023-03-14T06:40:10;10.60;99.90
6098;DHT22;3077;50.922;6.584;2023-03-14T06:42:35;10.60;99.90
6098;DHT22;3077;50.922;6.584;2023-03-14T06:45:02;10.60;99.90
6098;DHT22;3077;50.922;6.584;2023-03-14T06:47:28;10.60;99.90
6098;DHT22;3077;50.922;6.584;2023-03-14T06:49:53;10.70;99.90
6098;DHT22;3077;50.922;6.584;2023-03-14T06:52:19;10.70;99.90
6098;DHT22;3077;50.922;6.584;2023-03-14T06:54:44;10.70;99.90
6098;DHT22;3077;50.922;6.584;2023-03-14T06:57:10;10.70;99.90
6098;DHT22;3077;50.922;6.584;2023-03-14T06:59:36;10.80;99.90
6098;DHT22;3077;50.922;6.584;2023-03-14T07:02:01;10.80;99.90
6098;DHT22;3077;50.922;6.584;2023-03-14T07:04:27;10.90;99.90
6098;DHT22;3077;50.922;6.584;2023-03-14T07:06:52;11.00;99.90
6098;DHT22;3077;50.922;6.584;2023-03-14T07:09:18;10.90;99.90
6098;DHT22;3077;50.922;6.584;2023-03-14T07:11:44;11.00;99.90
6098;DHT22;3077;50.922;6.584;2023-03-14T07:14:09;11.00;99.90
6098;DHT22;3077;50.922;6.584;2023-03-14T07:16:35;11.00;99.90
6098;DHT22;3077;50.922;6.584;2023-03-14T07:19:02;11.00;99.90
6098;DHT22;3077;50.922;6.584;2023-03-14T07:21:27;11.00;99.90
6098;DHT22;3077;50.922;6.584;2023-03-14T07:23:53;11.10;99.90
6098;DHT22;3077;50.922;6.584;2023-03-14T07:26:19;11.10;99.90
6098;DHT22;3077;50.922;6.584;2023-03-14T07:28:44;11.10;99.90
6098;DHT22;3077;50.922;6.584;2023-03-14T07:31:10;11.20;99.90
6098;DHT22;3077;50.922;6.584;2023-03-14T07:33:35;11.20;99.90
6098;DHT22;3077;50.922;6.584;2023-03-14T07:36:01;11.20;99.90
6098;DHT22;3077;50.922;6.584;2023-03-14T07:38:27;11.30;99.90
6098;DHT22;3077;50.922;6.584;2023-03-14T07:41:00;11.30;99.90
6098;DHT22;3077;50.922;6.584;2023-03-14T07:43:26;11.30;99.90
6098;DHT22;3077;50.922;6.584;2023-03-14T07:45:52;11.20;99.90
6098;DHT22;3077;50.922;6.584;2023-03-14T07:48:18;10.90;99.90
6098;DHT22;3077;50.922;6.584;2023-03-14T07:50:43;11.10;99.90
6098;DHT22;3077;50.922;6.584;2023-03-14T07:53:09;11.10;99.90
6098;DHT22;3077;50.922;6.584;2023-03-14T07:55:35;11.20;99.90
6098;DHT22;3077;50.922;6.584;2023-03-14T07:58:00;11.20;99.90
6098;DHT22;3077;50.922;6.584;2023-03-14T08:00:26;11.30;99.90
6098;DHT22;3077;50.922;6.584;2023-03-14T08:02:52;11.30;99.90
6098;DHT22;3077;50.922;6.584;2023-03-14T08:05:18;11.30;99.90
6098;DHT22;3077;50.922;6.584;2023-03-14T08:07:43;11.30;99.90
6098;DHT22;3077;50.922;6.584;2023-03-14T08:10:09;11.40;99.90
6098;DHT22;3077;50.922;6.584;2023-03-14T08:12:35;11.40;99.90
6098;DHT22;3077;50.922;6.584;2023-03-14T08:15:01;11.50;99.90
6098;DHT22;3077;50.922;6.584;2023-03-14T08:17:27;11.50;99.90
6098;DHT22;3077;50.922;6.584;2023-03-14T08:19:53;11.50;99.90
6098;DHT22;3077;50.922;6.584;2023-03-14T08:22:18;11.40;99.90
6098;DHT22;3077;50.922;6.584;2023-03-14T08:24:44;11.50;99.90
6098;DHT22;3077;50.922;6.584;2023-03-14T08:27:09;11.40;99.90
6098;DHT22;3077;50.922;6.584;2023-03-14T08:29:35;11.50;99.90
6098;DHT22;3077;50.922;6.584;2023-03-14T08:32:00;11.40;99.90
6098;DHT22;3077;50.922;6.584;2023-03-14T08:34:26;11.40;99.90
6098;DHT22;3077;50.922;6.584;2023-03-14T08:36:52;11.40;99.90
6098;DHT22;3077;50.922;6.584;2023-03-14T08:39:17;11.30;99.90
6098;DHT22;3077;50.922;6.584;2023-03-14T08:41:43;11.20;99.90
6098;DHT22;3077;50.922;6.584;2023-03-14T08:44:10;11.10;99.90
6098;DHT22;3077;50.922;6.584;2023-03-14T08:46:37;11.00;99.90
6098;DHT22;3077;50.922;6.584;2023-03-14T08:49:03;10.90;99.90
6098;DHT22;3077;50.922;6.584;2023-03-14T08:51:28;10.90;99.90
6098;DHT22;3077;50.922;6.584;2023-03-14T08:53:54;10.80;99.90
6098;DHT22;3077;50.922;6.584;2023-03-14T08:56:19;10.80;99.90
6098;DHT22;3077;50.922;6.584;2023-03-14T08:58:45;10.80;99.90
6098;DHT22;3077;50.922;6.584;2023-03-14T09:01:11;10.80;99.90
6098;DHT22;3077;50.922;6.584;2023-03-14T09:03:37;10.70;99.90
6098;DHT22;3077;50.922;6.584;2023-03-14T09:06:07;10.70;99.90
6098;DHT22;3077;50.922;6.584;2023-03-14T09:08:33;11.10;99.90
6098;DHT22;3077;50.922;6.584;2023-03-14T09:10:59;10.60;99.90
6098;DHT22;3077;50.922;6.584;2023-03-14T09:13:24;10.70;99.90
6098;DHT22;3077;50.922;6.584;2023-03-14T09:15:54;10.60;99.90
6098;DHT22;3077;50.922;6.584;2023-03-14T09:18:20;10.10;99.90
6098;DHT22;3077;50.922;6.584;2023-03-14T09:20:46;10.10;99.90
6098;DHT22;3077;50.922;6.584;2023-03-14T09:23:12;9.30;99.90
6098;DHT22;3077;50.922;6.584;2023-03-14T09:25:37;9.00;99.90
6098;DHT22;3077;50.922;6.584;2023-03-14T09:28:03;8.50;99.90
6098;DHT22;3077;50.922;6.584;2023-03-14T09:30:29;8.30;99.90
6098;DHT22;3077;50.922;6.584;2023-03-14T09:32:55;8.20;99.90
6098;DHT22;3077;50.922;6.584;2023-03-14T09:35:20;8.10;99.90
6098;DHT22;3077;50.922;6.584;2023-03-14T09:37:46;8.00;99.90
6098;DHT22;3077;50.922;6.584;2023-03-14T09:40:19;8.20;99.90
6098;DHT22;3077;50.922;6.584;2023-03-14T09:42:48;7.90;99.90
6098;DHT22;3077;50.922;6.584;2023-03-14T09:45:36;8.00;99.90
6098;DHT22;3077;50.922;6.584;2023-03-14T09:48:04;8.00;99.90
6098;DHT22;3077;50.922;6.584;2023-03-14T09:50:40;8.00;99.90
6098;DHT22;3077;50.922;6.584;2023-03-14T09:53:17;8.10;99.90
6098;DHT22;3077;50.922;6.584;2023-03-14T09:55:45;8.00;99.90
6098;DHT22;3077;50.922;6.584;2023-03-14T09:58:14;7.90;99.90
6098;DHT22;3077;50.922;6.584;2023-03-14T10:00:41;7.90;99.90
6098;DHT22;3077;50.922;6.584;2023-03-14T10:05:39;7.90;99.90
6098;DHT22;3077;50.922;6.584;2023-03-14T10:08:05;7.90;99.90
6098;DHT22;3077;50.922;6.584;2023-03-14T10:10:31;7.80;99.90
6098;DHT22;3077;50.922;6.584;2023-03-14T10:13:00;7.90;99.90
6098;DHT22;3077;50.922;6.584;2023-03-14T10:15:32;8.00;99.90
6098;DHT22;3077;50.922;6.584;2023-03-14T10:18:03;8.00;99.90
6098;DHT22;3077;50.922;6.584;2023-03-14T10:20:41;8.00;99.90
6098;DHT22;3077;50.922;6.584;2023-03-14T10:25:43;8.00;99.90
6098;DHT22;3077;50.922;6.584;2023-03-14T10:28:45;8.10;99.90
6098;DHT22;3077;50.922;6.584;2023-03-14T10:31:12;8.10;99.90
6098;DHT22;3077;50.922;6.584;2023-03-14T10:33:38;8.10;99.90
6098;DHT22;3077;50.922;6.584;2023-03-14T10:36:22;8.10;99.90
6098;DHT22;3077;50.922;6.584;2023-03-14T10:38:49;8.20;99.90
6098;DHT22;3077;50.922;6.584;2023-03-14T10:41:25;8.20;99.90
6098;DHT22;3077;50.922;6.584;2023-03-14T10:43:54;8.10;99.90
6098;DHT22;3077;50.922;6.584;2023-03-14T10:46:23;8.30;99.90
6098;DHT22;3077;50.922;6.584;2023-03-14T10:48:51;8.40;99.90
6098;DHT22;3077;50.922;6.584;2023-03-14T10:51:28;8.40;99.90
6098;DHT22;3077;50.922;6.584;2023-03-14T10:54:00;8.50;99.90
6098;DHT22;3077;50.922;6.584;2023-03-14T10:56:28;8.70;99.90
6098;DHT22;3077;50.922;6.584;2023-03-14T10:58:58;8.60;99.90
6098;DHT22;3077;50.922;6.584;2023-03-14T11:01:51;8.60;99.90
6098;DHT22;3077;50.922;6.584;2023-03-14T11:09:53;9.20;99.90
6098;DHT22;3077;50.922;6.584;2023-03-14T11:14:54;9.10;99.90
6098;DHT22;3077;50.922;6.584;2023-03-14T11:17:30;9.10;99.90
6098;DHT22;3077;50.922;6.584;2023-03-14T11:20:16;9.00;99.90
6098;DHT22;3077;50.922;6.584;2023-03-14T11:28:23;9.00;99.90
6098;DHT22;3077;50.922;6.584;2023-03-14T11:30:59;9.00;99.90
6098;DHT22;3077;50.922;6.584;2023-03-14T11:36:08;8.80;99.90
6098;DHT22;3077;50.922;6.584;2023-03-14T11:38:43;6.80;99.90
6098;DHT22;3077;50.922;6.584;2023-03-14T11:41:19;6.70;99.90
6098;DHT22;3077;50.922;6.584;2023-03-14T11:43:48;6.40;99.90
6098;DHT22;3077;50.922;6.584;2023-03-14T11:46:30;6.30;99.90
6098;DHT22;3077;50.922;6.584;2023-03-14T11:51:32;6.60;99.90
6098;DHT22;3077;50.922;6.584;2023-03-14T11:54:15;6.70;99.90
6098;DHT22;3077;50.922;6.584;2023-03-14T11:56:52;6.90;99.90
6098;DHT22;3077;50.922;6.584;2023-03-14T11:59:24;7.00;99.90
6098;DHT22;3077;50.922;6.584;2023-03-14T12:04:40;7.20;99.90
6098;DHT22;3077;50.922;6.584;2023-03-14T12:07:16;7.20;99.90
6098;DHT22;3077;50.922;6.584;2023-03-14T12:09:43;7.60;99.90
6098;DHT22;3077;50.922;6.584;2023-03-14T12:12:13;7.40;99.90
6098;DHT22;3077;50.922;6.584;2023-03-14T12:14:45;7.40;99.90
6098;DHT22;3077;50.922;6.584;2023-03-14T12:17:24;7.60;99.90
6098;DHT22;3077;50.922;6.584;2023-03-14T12:20:04;7.40;99.90
6098;DHT22;3077;50.922;6.584;2023-03-14T12:22:35;7.30;99.90
6098;DHT22;3077;50.922;6.584;2023-03-14T12:25:05;7.20;99.90
6098;DHT22;3077;50.922;6.584;2023-03-14T12:27:45;7.20;99.90
6098;DHT22;3077;50.922;6.584;2023-03-14T12:30:40;7.20;99.90
6098;DHT22;3077;50.922;6.584;2023-03-14T12:35:39;9.00;99.90
6098;DHT22;3077;50.922;6.584;2023-03-14T12:38:10;7.10;99.90
6098;DHT22;3077;50.922;6.584;2023-03-14T12:40:48;7.20;99.90
6098;DHT22;3077;50.922;6.584;2023-03-14T12:43:32;7.10;99.90
6098;DHT22;3077;50.922;6.584;2023-03-14T12:48:42;7.20;99.90
6098;DHT22;3077;50.922;6.584;2023-03-14T12:51:16;7.30;99.90
6098;DHT22;3077;50.922;6.584;2023-03-14T13:00:11;7.80;99.90
6098;DHT22;3077;50.922;6.584;2023-03-14T13:02:41;7.70;99.90
6098;DHT22;3077;50.922;6.584;2023-03-14T13:08:02;7.50;99.90
6098;DHT22;3077;50.922;6.584;2023-03-14T13:10:41;7.40;99.90
6098;DHT22;3077;50.922;6.584;2023-03-14T13:13:11;7.40;99.90
6098;DHT22;3077;50.922;6.584;2023-03-14T13:15:46;7.50;99.90
6098;DHT22;3077;50.922;6.584;2023-03-14T13:18:28;7.60;99.90
6098;DHT22;3077;50.922;6.584;2023-03-14T13:20:58;7.80;99.90
6098;DHT22;3077;50.922;6.584;2023-03-14T13:23:30;7.80;99.90
6098;DHT22;3077;50.922;6.584;2023-03-14T13:25:56;7.90;99.90
6098;DHT22;3077;50.922;6.584;2023-03-14T13:28:24;7.90;99.90
6098;DHT22;3077;50.922;6.584;2023-03-14T13:30:55;7.90;99.90
6098;DHT22;3077;50.922;6.584;2023-03-14T13:33:22;7.90;99.90
6098;DHT22;3077;50.922;6.584;2023-03-14T13:36:01;7.90;99.90
6098;DHT22;3077;50.922;6.584;2023-03-14T13:38:32;7.30;99.90
6098;DHT22;3077;50.922;6.584;2023-03-14T13:41:04;7.30;99.90
6098;DHT22;3077;50.922;6.584;2023-03-14T13:43:40;6.80;99.90
6098;DHT22;3077;50.922;6.584;2023-03-14T13:46:13;6.50;99.90
6098;DHT22;3077;50.922;6.584;2023-03-14T13:48:45;6.20;99.90
6098;DHT22;3077;50.922;6.584;2023-03-14T13:51:13;6.10;99.90
6098;DHT22;3077;50.922;6.584;2023-03-14T13:53:49;6.10;99.90
6098;DHT22;3077;50.922;6.584;2023-03-14T13:56:16;6.20;99.90
6098;DHT22;3077;50.922;6.584;2023-03-14T13:58:42;6.20;99.90
6098;DHT22;3077;50.922;6.584;2023-03-14T14:01:13;6.30;99.90
6098;DHT22;3077;50.922;6.584;2023-03-14T14:03:41;6.30;99.90
6098;DHT22;3077;50.922;6.584;2023-03-14T14:06:21;6.30;99.90
6098;DHT22;3077;50.922;6.584;2023-03-14T14:08:48;6.20;99.90
6098;DHT22;3077;50.922;6.584;2023-03-14T14:14:00;6.40;99.90
6098;DHT22;3077;50.922;6.584;2023-03-14T14:16:27;6.50;99.90
6098;DHT22;3077;50.922;6.584;2023-03-14T14:18:53;6.60;99.90
6098;DHT22;3077;50.922;6.584;2023-03-14T14:21:21;6.50;99.90
6098;DHT22;3077;50.922;6.584;2023-03-14T14:23:47;6.50;99.90
6098;DHT22;3077;50.922;6.584;2023-03-14T14:26:16;6.50;99.90
6098;DHT22;3077;50.922;6.584;2023-03-14T14:28:43;6.60;99.90
6098;DHT22;3077;50.922;6.584;2023-03-14T14:33:42;6.60;99.90
6098;DHT22;3077;50.922;6.584;2023-03-14T14:36:31;6.60;99.90
6098;DHT22;3077;50.922;6.584;2023-03-14T14:39:01;6.60;99.90
6098;DHT22;3077;50.922;6.584;2023-03-14T14:41:32;6.70;99.90
6098;DHT22;3077;50.922;6.584;2023-03-14T14:43:59;6.70;99.90
6098;DHT22;3077;50.922;6.584;2023-03-14T14:46:28;6.80;99.90
6098;DHT22;3077;50.922;6.584;2023-03-14T14:48:57;6.90;99.90
6098;DHT22;3077;50.922;6.584;2023-03-14T14:51:30;7.20;99.90
6098;DHT22;3077;50.922;6.584;2023-03-14T14:54:32;7.10;99.90
6098;DHT22;3077;50.922;6.584;2023-03-14T14:57:04;7.20;99.90
6098;DHT22;3077;50.922;6.584;2023-03-14T14:59:30;7.30;99.90
6098;DHT22;3077;50.922;6.584;2023-03-14T15:02:01;7.60;99.90
6098;DHT22;3077;50.922;6.584;2023-03-14T15:04:30;7.40;99.90
6098;DHT22;3077;50.922;6.584;2023-03-14T15:06:56;7.40;99.90
6098;DHT22;3077;50.922;6.584;2023-03-14T15:09:21;7.50;99.90
6098;DHT22;3077;50.922;6.584;2023-03-14T15:11:48;7.50;99.90
6098;DHT22;3077;50.922;6.584;2023-03-14T15:14:14;7.50;99.90
6098;DHT22;3077;50.922;6.584;2023-03-14T15:16:40;7.60;99.90
6098;DHT22;3077;50.922;6.584;2023-03-14T15:19:19;7.60;99.90
6098;DHT22;3077;50.922;6.584;2023-03-14T15:21:45;7.70;99.90
6098;DHT22;3077;50.922;6.584;2023-03-14T15:24:11;7.80;99.90
6098;DHT22;3077;50.922;6.584;2023-03-14T15:26:37;7.60;99.90
6098;DHT22;3077;50.922;6.584;2023-03-14T15:29:02;7.60;99.90
6098;DHT22;3077;50.922;6.584;2023-03-14T15:31:28;7.60;99.90
6098;DHT22;3077;50.922;6.584;2023-03-14T15:33:53;7.70;99.90
6098;DHT22;3077;50.922;6.584;2023-03-14T15:36:25;7.80;99.90
6098;DHT22;3077;50.922;6.584;2023-03-14T15:38:52;7.60;99.90
6098;DHT22;3077;50.922;6.584;2023-03-14T15:41:19;7.80;99.90
6098;DHT22;3077;50.922;6.584;2023-03-14T15:43:46;7.70;99.90
6098;DHT22;3077;50.922;6.584;2023-03-14T15:46:12;7.60;99.90
6098;DHT22;3077;50.922;6.584;2023-03-14T15:48:38;7.70;99.90
6098;DHT22;3077;50.922;6.584;2023-03-14T15:51:03;7.70;99.90
6098;DHT22;3077;50.922;6.584;2023-03-14T15:53:29;7.60;99.90
6098;DHT22;3077;50.922;6.584;2023-03-14T15:55:55;7.60;99.90
6098;DHT22;3077;50.922;6.584;2023-03-14T15:58:20;7.80;99.90
6098;DHT22;3077;50.922;6.584;2023-03-14T16:00:46;7.70;99.90
6098;DHT22;3077;50.922;6.584;2023-03-14T16:03:12;7.60;99.90
6098;DHT22;3077;50.922;6.584;2023-03-14T16:05:39;7.60;99.90
6098;DHT22;3077;50.922;6.584;2023-03-14T16:08:05;7.60;99.90
6098;DHT22;3077;50.922;6.584;2023-03-14T16:10:31;7.70;99.90
6098;DHT22;3077;50.922;6.584;2023-03-14T16:12:57;7.60;99.90
6098;DHT22;3077;50.922;6.584;2023-03-14T16:15:23;7.50;99.90
6098;DHT22;3077;50.922;6.584;2023-03-14T16:17:54;7.50;99.90
6098;DHT22;3077;50.922;6.584;2023-03-14T16:20:21;7.50;99.90
6098;DHT22;3077;50.922;6.584;2023-03-14T16:22:47;7.50;99.90
6098;DHT22;3077;50.922;6.584;2023-03-14T16:25:13;7.50;99.90
6098;DHT22;3077;50.922;6.584;2023-03-14T16:27:39;7.50;99.90
6098;DHT22;3077;50.922;6.584;2023-03-14T16:30:05;7.40;99.90
6098;DHT22;3077;50.922;6.584;2023-03-14T16:32:31;7.30;99.90
6098;DHT22;3077;50.922;6.584;2023-03-14T16:34:57;7.30;99.90
6098;DHT22;3077;50.922;6.584;2023-03-14T16:37:23;7.20;99.90
6098;DHT22;3077;50.922;6.584;2023-03-14T16:39:49;7.20;99.90
6098;DHT22;3077;50.922;6.584;2023-03-14T16:42:15;7.20;99.90
6098;DHT22;3077;50.922;6.584;2023-03-14T16:44:41;7.10;99.90
6098;DHT22;3077;50.922;6.584;2023-03-14T16:47:07;7.10;99.90
6098;DHT22;3077;50.922;6.584;2023-03-14T16:49:32;7.10;99.90
6098;DHT22;3077;50.922;6.584;2023-03-14T16:51:58;7.00;99.90
6098;DHT22;3077;50.922;6.584;2023-03-14T16:54:23;7.00;99.90
6098;DHT22;3077;50.922;6.584;2023-03-14T16:56:49;6.90;99.90
6098;DHT22;3077;50.922;6.584;2023-03-14T16:59:15;6.90;99.90
6098;DHT22;3077;50.922;6.584;2023-03-14T17:01:40;6.90;99.90
6098;DHT22;3077;50.922;6.584;2023-03-14T17:04:08;6.90;99.90